sensor_id;sensor_type;location;lat;lon;timestamp;pressure;altitude;pressure_sealevel;temperature;humidity
11343;BME280;5726;42.160;24.746;2023-01-28T00:00:32;98822.88;;;5.49;100.00
11343;BME280;5726;42.160;24.746;2023-01-28T00:02:58;98818.59;;;5.53;100.00
11343;BME280;5726;42.160;24.746;2023-01-28T00:05:23;98819.44;;;5.49;100.00
11343;BME280;5726;42.160;24.746;2023-01-28T00:07:49;98822.59;;;5.51;100.00
11343;BME280;5726;42.160;24.746;2023-01-28T00:10:16;98822.25;;;5.67;100.00
11343;BME280;5726;42.160;24.746;2023-01-28T00:12:41;98831.66;;;5.45;100.00
11343;BME280;5726;42.160;24.746;2023-01-28T00:15:07;98826.03;;;5.56;100.00
11343;BME280;5726;42.160;24.746;2023-01-28T00:17:34;98828.19;;;5.49;100.00
11343;BME280;5726;42.160;24.746;2023-01-28T00:20:01;98830.63;;;5.36;100.00
11343;BME280;5726;42.160;24.746;2023-01-28T00:22:27;98835.16;;;5.35;100.00
11343;BME280;5726;42.160;24.746;2023-01-28T00:24:52;98832.72;;;5.44;100.00
11343;BME280;5726;42.160;24.746;2023-01-28T00:27:18;98833.81;;;5.38;100.00
11343;BME280;5726;42.160;24.746;2023-01-28T00:29:43;98832.47;;;5.40;100.00
11343;BME280;5726;42.160;24.746;2023-01-28T00:32:08;98839.41;;;5.31;100.00
11343;BME280;5726;42.160;24.746;2023-01-28T00:34:34;98851.69;;;5.13;100.00
11343;BME280;5726;42.160;24.746;2023-01-28T00:36:59;98845.25;;;5.33;100.00
11343;BME280;5726;42.160;24.746;2023-01-28T00:39:25;98846.81;;;5.39;100.00
11343;BME280;5726;42.160;24.746;2023-01-28T00:41:52;98856.69;;;5.29;100.00
11343;BME280;5726;42.160;24.746;2023-01-28T00:44:18;98854.84;;;5.24;100.00
11343;BME280;5726;42.160;24.746;2023-01-28T00:46:44;98868.59;;;5.46;100.00
11343;BME280;5726;42.160;24.746;2023-01-28T00:49:10;98872.09;;;5.32;100.00
11343;BME280;5726;42.160;24.746;2023-01-28T00:51:35;98870.75;;;5.44;100.00
11343;BME280;5726;42.160;24.746;2023-01-28T00:54:01;98874.44;;;5.43;100.00
11343;BME280;5726;42.160;24.746;2023-01-28T00:56:26;98876.31;;;5.38;100.00
11343;BME280;5726;42.160;24.746;2023-01-28T00:58:52;98871.28;;;5.36;100.00
11343;BME280;5726;42.160;24.746;2023-01-28T01:01:23;98872.84;;;5.47;100.00
11343;BME280;5726;42.160;24.746;2023-01-28T01:03:49;98872.94;;;5.18;100.00
11343;BME280;5726;42.160;24.746;2023-01-28T01:06:32;98876.63;;;5.21;100.00
11343;BME280;5726;42.160;24.746;2023-01-28T01:08:59;98874.28;;;5.10;100.00
11343;BME280;5726;42.160;24.746;2023-01-28T01:11:25;98872.94;;;5.13;100.00
11343;BME280;5726;42.160;24.746;2023-01-28T01:13:52;98879.84;;;5.14;100.00
11343;BME280;5726;42.160;24.746;2023-01-28T01:16:20;98881.69;;;5.28;100.00
11343;BME280;5726;42.160;24.746;2023-01-28T01:18:45;98880.91;;;5.18;100.00
11343;BME280;5726;42.160;24.746;2023-01-28T01:21:16;98880.09;;;5.17;100.00
11343;BME280;5726;42.160;24.746;2023-01-28T01:23:42;98868.16;;;5.10;100.00
11343;BME280;5726;42.160;24.746;2023-01-28T01:26:08;98864.69;;;5.14;100.00
11343;BME280;5726;42.160;24.746;2023-01-28T01:28:35;98864.44;;;5.11;100.00
11343;BME280;5726;42.160;24.746;2023-01-28T01:31:06;98888.38;;;5.06;100.00
11343;BME280;5726;42.160;24.746;2023-01-28T01:33:32;98873.25;;;4.96;100.00
11343;BME280;5726;42.160;24.746;2023-01-28T01:35:58;98883.03;;;5.16;100.00
11343;BME280;5726;42.160;24.746;2023-01-28T01:38:23;98877.19;;;5.14;100.00
11343;BME280;5726;42.160;24.746;2023-01-28T01:40:50;98881.94;;;5.21;100.00
11343;BME280;5726;42.160;24.746;2023-01-28T01:43:21;98887.00;;;5.23;100.00
11343;BME280;5726;42.160;24.746;2023-01-28T01:45:55;98889.13;;;5.11;100.00
11343;BME280;5726;42.160;24.746;2023-01-28T01:48:24;98889.44;;;5.00;100.00
11343;BME280;5726;42.160;24.746;2023-01-28T01:50:59;98888.88;;;5.13;100.00
11343;BME280;5726;42.160;24.746;2023-01-28T01:53:26;98896.31;;;5.21;100.00
11343;BME280;5726;42.160;24.746;2023-01-28T01:55:56;98896.31;;;5.21;100.00
11343;BME280;5726;42.160;24.746;2023-01-28T01:58:26;98911.72;;;5.23;100.00
11343;BME280;5726;42.160;24.746;2023-01-28T02:00:52;98907.47;;;5.18;100.00
11343;BME280;5726;42.160;24.746;2023-01-28T02:03:24;98906.13;;;5.25;100.00
11343;BME280;5726;42.160;24.746;2023-01-28T02:05:53;98913.81;;;5.31;100.00
11343;BME280;5726;42.160;24.746;2023-01-28T02:08:19;98920.44;;;5.39;100.00
11343;BME280;5726;42.160;24.746;2023-01-28T02:10:58;98921.84;;;5.12;100.00
11343;BME280;5726;42.160;24.746;2023-01-28T02:13:29;98919.69;;;5.23;100.00
11343;BME280;5726;42.160;24.746;2023-01-28T02:15:58;98921.78;;;5.31;100.00
11343;BME280;5726;42.160;24.746;2023-01-28T02:18:25;98921.78;;;5.31;100.00
11343;BME280;5726;42.160;24.746;2023-01-28T02:29:08;98935.06;;;5.46;100.00
11343;BME280;5726;42.160;24.746;2023-01-28T02:31:43;98941.19;;;5.42;100.00
11343;BME280;5726;42.160;24.746;2023-01-28T02:34:38;98938.75;;;5.55;100.00
11343;BME280;5726;42.160;24.746;2023-01-28T02:37:14;98943.56;;;5.53;100.00
11343;BME280;5726;42.160;24.746;2023-01-28T02:39:47;98932.41;;;5.36;100.00
11343;BME280;5726;42.160;24.746;2023-01-28T02:42:20;98941.97;;;5.42;100.00
11343;BME280;5726;42.160;24.746;2023-01-28T02:44:47;98936.66;;;5.47;100.00
11343;BME280;5726;42.160;24.746;2023-01-28T02:47:14;98941.94;;;5.62;100.00
11343;BME280;5726;42.160;24.746;2023-01-28T02:50:04;98946.22;;;5.53;100.00
11343;BME280;5726;42.160;24.746;2023-01-28T02:58:15;98950.97;;;5.61;100.00
11343;BME280;5726;42.160;24.746;2023-01-28T03:01:47;98953.88;;;5.65;100.00
11343;BME280;5726;42.160;24.746;2023-01-28T03:06:36;98960.81;;;5.61;100.00
11343;BME280;5726;42.160;24.746;2023-01-28T03:09:05;98949.13;;;5.57;100.00
11343;BME280;5726;42.160;24.746;2023-01-28T03:12:08;98954.19;;;5.53;100.00
11343;BME280;5726;42.160;24.746;2023-01-28T03:14:57;98966.41;;;5.59;100.00
11343;BME280;5726;42.160;24.746;2023-01-28T03:17:48;98960.56;;;5.52;100.00
11343;BME280;5726;42.160;24.746;2023-01-28T03:23:29;98954.19;;;5.53;100.00
11343;BME280;5726;42.160;24.746;2023-01-28T03:26:15;98954.19;;;5.53;100.00
11343;BME280;5726;42.160;24.746;2023-01-28T03:29:07;98967.50;;;5.33;100.00
11343;BME280;5726;42.160;24.746;2023-01-28T03:31:54;98962.44;;;5.42;100.00
11343;BME280;5726;42.160;24.746;2023-01-28T03:34:40;98973.31;;;5.45;100.00
11343;BME280;5726;42.160;24.746;2023-01-28T03:37:25;98972.75;;;5.68;100.00
11343;BME280;5726;42.160;24.746;2023-01-28T03:39:52;98964.78;;;5.63;100.00
11343;BME280;5726;42.160;24.746;2023-01-28T03:42:22;98976.75;;;5.75;100.00
11343;BME280;5726;42.160;24.746;2023-01-28T03:44:47;98968.53;;;5.52;100.00
11343;BME280;5726;42.160;24.746;2023-01-28T03:47:21;98978.13;;;5.38;100.00
11343;BME280;5726;42.160;24.746;2023-01-28T03:49:50;98978.13;;;5.28;100.00
11343;BME280;5726;42.160;24.746;2023-01-28T03:52:27;98986.09;;;5.38;100.00
11343;BME280;5726;42.160;24.746;2023-01-28T03:54:54;98972.81;;;5.43;100.00
11343;BME280;5726;42.160;24.746;2023-01-28T03:57:22;98987.16;;;5.47;100.00
11343;BME280;5726;42.160;24.746;2023-01-28T03:59:48;98973.34;;;5.40;100.00
11343;BME280;5726;42.160;24.746;2023-01-28T04:02:15;98983.97;;;5.35;100.00
11343;BME280;5726;42.160;24.746;2023-01-28T04:04:41;98985.28;;;5.48;100.00
11343;BME280;5726;42.160;24.746;2023-01-28T04:07:08;98992.47;;;5.52;100.00
11343;BME280;5726;42.160;24.746;2023-01-28T04:09:37;98988.19;;;5.61;100.00
11343;BME280;5726;42.160;24.746;2023-01-28T04:12:03;98986.06;;;5.58;100.00
11343;BME280;5726;42.160;24.746;2023-01-28T04:14:29;98991.13;;;5.50;100.00
11343;BME280;5726;42.160;24.746;2023-01-28T04:16:55;98991.44;;;5.38;100.00
11343;BME280;5726;42.160;24.746;2023-01-28T04:19:21;98989.28;;;5.50;100.00
11343;BME280;5726;42.160;24.746;2023-01-28T04:21:47;98980.47;;;5.60;100.00
11343;BME280;5726;42.160;24.746;2023-01-28T04:24:14;98986.09;;;5.43;100.00
11343;BME280;5726;42.160;24.746;2023-01-28T04:26:39;98989.28;;;5.45;100.00
11343;BME280;5726;42.160;24.746;2023-01-28T04:29:05;98991.94;;;5.50;100.00
11343;BME280;5726;42.160;24.746;2023-01-28T04:31:30;98989.81;;;5.42;100.00
11343;BME280;5726;42.160;24.746;2023-01-28T04:33:56;98997.25;;;5.50;100.00
11343;BME280;5726;42.160;24.746;2023-01-28T04:36:22;99002.56;;;5.45;100.00
11343;BME280;5726;42.160;24.746;2023-01-28T04:38:47;99001.53;;;5.31;100.00
11343;BME280;5726;42.160;24.746;2023-01-28T04:41:13;99003.09;;;5.47;100.00
11343;BME280;5726;42.160;24.746;2023-01-28T04:43:39;99000.44;;;5.37;100.00
11343;BME280;5726;42.160;24.746;2023-01-28T04:46:04;99005.75;;;5.13;100.00
11343;BME280;5726;42.160;24.746;2023-01-28T04:48:30;99013.22;;;5.40;100.00
11343;BME280;5726;42.160;24.746;2023-01-28T04:50:56;99018.50;;;5.30;100.00
11343;BME280;5726;42.160;24.746;2023-01-28T04:53:21;99015.59;;;5.32;100.00
11343;BME280;5726;42.160;24.746;2023-01-28T04:55:47;99024.09;;;5.29;100.00
11343;BME280;5726;42.160;24.746;2023-01-28T04:58:12;99032.88;;;5.49;100.00
11343;BME280;5726;42.160;24.746;2023-01-28T05:00:38;99036.34;;;5.40;100.00
11343;BME280;5726;42.160;24.746;2023-01-28T05:03:03;99038.19;;;5.39;100.00
11343;BME280;5726;42.160;24.746;2023-01-28T05:05:29;99036.88;;;5.42;100.00
11343;BME280;5726;42.160;24.746;2023-01-28T05:07:55;99043.50;;;5.44;100.00
11343;BME280;5726;42.160;24.746;2023-01-28T05:10:21;99047.78;;;5.35;100.00
11343;BME280;5726;42.160;24.746;2023-01-28T05:12:47;99044.56;;;5.33;100.00
11343;BME280;5726;42.160;24.746;2023-01-28T05:15:15;99043.78;;;5.33;100.00
11343;BME280;5726;42.160;24.746;2023-01-28T05:17:40;99048.81;;;5.10;100.00
11343;BME280;5726;42.160;24.746;2023-01-28T05:20:08;99050.41;;;5.30;100.00
11343;BME280;5726;42.160;24.746;2023-01-28T05:22:34;99056.78;;;5.34;100.00
11343;BME280;5726;42.160;24.746;2023-01-28T05:24:59;99053.88;;;5.21;100.00
11343;BME280;5726;42.160;24.746;2023-01-28T05:27:25;99060.50;;;5.33;100.00
11343;BME280;5726;42.160;24.746;2023-01-28T05:29:51;99066.09;;;5.42;100.00
11343;BME280;5726;42.160;24.746;2023-01-28T05:32:16;99052.00;;;5.31;100.00
11343;BME280;5726;42.160;24.746;2023-01-28T05:34:41;99064.22;;;5.42;100.00
11343;BME280;5726;42.160;24.746;2023-01-28T05:37:07;99063.19;;;5.38;100.00
11343;BME280;5726;42.160;24.746;2023-01-28T05:39:32;99062.13;;;5.44;100.00
11343;BME280;5726;42.160;24.746;2023-01-28T05:41:58;99062.38;;;5.28;100.00
11343;BME280;5726;42.160;24.746;2023-01-28T05:44:23;99079.66;;;5.50;100.00
11343;BME280;5726;42.160;24.746;2023-01-28T05:46:48;99077.50;;;5.27;100.00
11343;BME280;5726;42.160;24.746;2023-01-28T05:49:14;99084.19;;;5.40;100.00
11343;BME280;5726;42.160;24.746;2023-01-28T05:51:41;99081.50;;;5.50;100.00
11343;BME280;5726;42.160;24.746;2023-01-28T05:54:07;99077.53;;;5.67;100.00
11343;BME280;5726;42.160;24.746;2023-01-28T05:56:33;99082.31;;;5.60;100.00
11343;BME280;5726;42.160;24.746;2023-01-28T05:59:03;99081.69;;;6.22;100.00
11343;BME280;5726;42.160;24.746;2023-01-28T06:01:29;99093.09;;;6.43;100.00
11343;BME280;5726;42.160;24.746;2023-01-28T06:03:55;99098.53;;;6.76;100.00
11343;BME280;5726;42.160;24.746;2023-01-28T06:06:20;99102.09;;;6.52;100.00
11343;BME280;5726;42.160;24.746;2023-01-28T06:08:46;99109.91;;;6.23;100.00
11343;BME280;5726;42.160;24.746;2023-01-28T06:11:11;99111.84;;;5.98;100.00
11343;BME280;5726;42.160;24.746;2023-01-28T06:13:37;99121.94;;;5.76;100.00
11343;BME280;5726;42.160;24.746;2023-01-28T06:16:02;99125.41;;;5.87;100.00
11343;BME280;5726;42.160;24.746;2023-01-28T06:18:28;99132.03;;;5.69;100.00
11343;BME280;5726;42.160;24.746;2023-01-28T06:20:54;99128.84;;;5.68;100.00
11343;BME280;5726;42.160;24.746;2023-01-28T06:23:19;99119.25;;;5.47;100.00
11343;BME280;5726;42.160;24.746;2023-01-28T06:25:44;99127.78;;;5.59;100.00
11343;BME280;5726;42.160;24.746;2023-01-28T06:28:10;99140.78;;;5.40;100.00
11343;BME280;5726;42.160;24.746;2023-01-28T06:30:35;99144.53;;;5.44;100.00
11343;BME280;5726;42.160;24.746;2023-01-28T06:33:01;99138.94;;;5.56;100.00
11343;BME280;5726;42.160;24.746;2023-01-28T06:35:26;99138.69;;;5.62;100.00
11343;BME280;5726;42.160;24.746;2023-01-28T06:37:52;99148.22;;;5.33;100.00
11343;BME280;5726;42.160;24.746;2023-01-28T06:40:18;99143.19;;;5.42;100.00
11343;BME280;5726;42.160;24.746;2023-01-28T06:42:44;99149.03;;;5.44;100.00
11343;BME280;5726;42.160;24.746;2023-01-28T06:45:10;99155.94;;;5.50;100.00
11343;BME280;5726;42.160;24.746;2023-01-28T06:47:37;99166.84;;;5.43;100.00
11343;BME280;5726;42.160;24.746;2023-01-28T06:50:03;99168.44;;;5.44;100.00
11343;BME280;5726;42.160;24.746;2023-01-28T06:52:29;99172.97;;;5.54;100.00
11343;BME280;5726;42.160;24.746;2023-01-28T06:54:54;99165.53;;;5.66;100.00
11343;BME280;5726;42.160;24.746;2023-01-28T06:57:19;99166.88;;;5.53;100.00
11343;BME280;5726;42.160;24.746;2023-01-28T06:59:45;99170.06;;;5.55;100.00
11343;BME280;5726;42.160;24.746;2023-01-28T07:02:10;99173.31;;;5.77;100.00
11343;BME280;5726;42.160;24.746;2023-01-28T07:04:36;99181.22;;;5.72;100.00
11343;BME280;5726;42.160;24.746;2023-01-28T07:07:02;99179.13;;;5.99;100.00
11343;BME280;5726;42.160;24.746;2023-01-28T07:09:27;99182.81;;;5.63;100.00
11343;BME280;5726;42.160;24.746;2023-01-28T07:11:53;99185.53;;;5.83;100.00
11343;BME280;5726;42.160;24.746;2023-01-28T07:14:18;99183.38;;;5.90;100.00
11343;BME280;5726;42.160;24.746;2023-01-28T07:16:43;99194.06;;;5.95;100.00
11343;BME280;5726;42.160;24.746;2023-01-28T07:19:09;99188.47;;;5.81;100.00
11343;BME280;5726;42.160;24.746;2023-01-28T07:21:34;99190.81;;;5.68;100.00
11343;BME280;5726;42.160;24.746;2023-01-28T07:24:00;99187.66;;;5.86;100.00
11343;BME280;5726;42.160;24.746;2023-01-28T07:26:25;99200.16;;;5.95;100.00
11343;BME280;5726;42.160;24.746;2023-01-28T07:28:51;99204.97;;;5.93;100.00
11343;BME280;5726;42.160;24.746;2023-01-28T07:31:16;99206.53;;;5.94;100.00
11343;BME280;5726;42.160;24.746;2023-01-28T07:33:41;99203.59;;;6.11;100.00
11343;BME280;5726;42.160;24.746;2023-01-28T07:36:07;99211.56;;;6.25;100.00
11343;BME280;5726;42.160;24.746;2023-01-28T07:38:32;99214.78;;;6.22;100.00
11343;BME280;5726;42.160;24.746;2023-01-28T07:40:58;99218.00;;;5.95;100.00
11343;BME280;5726;42.160;24.746;2023-01-28T07:43:23;99214.00;;;6.12;100.00
11343;BME280;5726;42.160;24.746;2023-01-28T07:45:49;99216.91;;;5.96;100.00
11343;BME280;5726;42.160;24.746;2023-01-28T07:48:15;99218.50;;;6.02;100.00
11343;BME280;5726;42.160;24.746;2023-01-28T07:50:41;99221.94;;;6.42;90.37
11343;BME280;5726;42.160;24.746;2023-01-28T07:53:08;99223.31;;;6.24;90.37
11343;BME280;5726;42.160;24.746;2023-01-28T07:55:36;99229.66;;;6.43;90.33
11343;BME280;5726;42.160;24.746;2023-01-28T07:58:03;99222.69;;;6.67;89.71
11343;BME280;5726;42.160;24.746;2023-01-28T08:00:31;99216.72;;;7.00;87.49
11343;BME280;5726;42.160;24.746;2023-01-28T08:03:06;99227.47;;;6.80;88.21
11343;BME280;5726;42.160;24.746;2023-01-28T08:05:59;99215.19;;;6.89;88.19
11343;BME280;5726;42.160;24.746;2023-01-28T08:08:25;99237.28;;;6.89;87.08
11343;BME280;5726;42.160;24.746;2023-01-28T08:10:52;99231.63;;;7.11;85.88
11343;BME280;5726;42.160;24.746;2023-01-28T08:13:18;99231.69;;;6.91;86.56
11343;BME280;5726;42.160;24.746;2023-01-28T08:15:44;99234.31;;;7.06;85.88
11343;BME280;5726;42.160;24.746;2023-01-28T08:18:12;99240.75;;;6.95;87.51
11343;BME280;5726;42.160;24.746;2023-01-28T08:20:38;99233.75;;;7.13;86.96
11343;BME280;5726;42.160;24.746;2023-01-28T08:23:17;99252.41;;;7.09;86.48
11343;BME280;5726;42.160;24.746;2023-01-28T08:25:44;99245.19;;;7.24;86.31
11343;BME280;5726;42.160;24.746;2023-01-28T08:28:11;99250.47;;;7.29;85.26
11343;BME280;5726;42.160;24.746;2023-01-28T08:30:37;99246.75;;;7.25;85.38
11343;BME280;5726;42.160;24.746;2023-01-28T08:33:04;99249.66;;;7.33;85.69
11343;BME280;5726;42.160;24.746;2023-01-28T08:35:31;99253.00;;;7.59;85.23
11343;BME280;5726;42.160;24.746;2023-01-28T08:37:58;99248.91;;;7.71;84.47
11343;BME280;5726;42.160;24.746;2023-01-28T08:40:24;99268.22;;;7.53;83.08
11343;BME280;5726;42.160;24.746;2023-01-28T08:42:51;99263.72;;;7.49;82.91
11343;BME280;5726;42.160;24.746;2023-01-28T08:45:17;99271.13;;;7.61;83.38
11343;BME280;5726;42.160;24.746;2023-01-28T08:48:06;99270.84;;;8.06;82.95
11343;BME280;5726;42.160;24.746;2023-01-28T08:50:35;99260.34;;;8.53;81.86
11343;BME280;5726;42.160;24.746;2023-01-28T08:53:03;99282.56;;;8.76;80.18
11343;BME280;5726;42.160;24.746;2023-01-28T08:55:30;99273.03;;;8.94;77.80
11343;BME280;5726;42.160;24.746;2023-01-28T08:57:55;99282.47;;;8.86;77.38
11343;BME280;5726;42.160;24.746;2023-01-28T09:00:21;99274.94;;;8.88;77.55
11343;BME280;5726;42.160;24.746;2023-01-28T09:02:51;99282.25;;;9.06;78.35
11343;BME280;5726;42.160;24.746;2023-01-28T09:05:17;99272.59;;;9.33;76.87
11343;BME280;5726;42.160;24.746;2023-01-28T09:07:42;99279.00;;;9.32;76.26
11343;BME280;5726;42.160;24.746;2023-01-28T09:10:08;99272.66;;;9.05;76.67
11343;BME280;5726;42.160;24.746;2023-01-28T09:12:34;99283.97;;;9.20;76.10
11343;BME280;5726;42.160;24.746;2023-01-28T09:15:00;99285.34;;;8.90;76.55
11343;BME280;5726;42.160;24.746;2023-01-28T09:17:25;99279.22;;;8.61;78.42
11343;BME280;5726;42.160;24.746;2023-01-28T09:19:51;99283.09;;;8.78;78.56
11343;BME280;5726;42.160;24.746;2023-01-28T09:22:16;99276.78;;;8.64;76.80
11343;BME280;5726;42.160;24.746;2023-01-28T09:24:42;99269.47;;;8.75;83.34
11343;BME280;5726;42.160;24.746;2023-01-28T09:27:07;99281.56;;;8.96;77.46
11343;BME280;5726;42.160;24.746;2023-01-28T09:29:33;99277.47;;;8.80;79.33
11343;BME280;5726;42.160;24.746;2023-01-28T09:31:59;99278.31;;;8.47;77.62
11343;BME280;5726;42.160;24.746;2023-01-28T09:34:25;99280.50;;;8.40;78.69
11343;BME280;5726;42.160;24.746;2023-01-28T09:36:50;99279.22;;;8.61;77.52
11343;BME280;5726;42.160;24.746;2023-01-28T09:39:16;99277.75;;;8.50;78.51
11343;BME280;5726;42.160;24.746;2023-01-28T09:41:50;99281.44;;;8.54;78.87
11343;BME280;5726;42.160;24.746;2023-01-28T09:47:07;99283.66;;;8.75;77.78
11343;BME280;5726;42.160;24.746;2023-01-28T09:49:39;99280.50;;;8.68;77.95
11343;BME280;5726;42.160;24.746;2023-01-28T09:52:12;99276.50;;;8.94;77.75
11343;BME280;5726;42.160;24.746;2023-01-28T09:54:45;99283.25;;;8.87;76.84
11343;BME280;5726;42.160;24.746;2023-01-28T09:59:45;99285.56;;;8.42;77.54
11343;BME280;5726;42.160;24.746;2023-01-28T10:08:13;99287.00;;;8.24;78.67
11343;BME280;5726;42.160;24.746;2023-01-28T10:10:54;99274.91;;;8.37;78.14
11343;BME280;5726;42.160;24.746;2023-01-28T10:16:08;99273.38;;;8.31;78.83
11343;BME280;5726;42.160;24.746;2023-01-28T10:18:53;99280.56;;;8.30;79.00
11343;BME280;5726;42.160;24.746;2023-01-28T10:21:25;99283.16;;;8.40;78.72
11343;BME280;5726;42.160;24.746;2023-01-28T10:24:16;99288.09;;;8.23;79.53
11343;BME280;5726;42.160;24.746;2023-01-28T10:26:46;99282.22;;;8.26;80.01
11343;BME280;5726;42.160;24.746;2023-01-28T10:29:18;99284.56;;;8.33;80.03
11343;BME280;5726;42.160;24.746;2023-01-28T10:32:04;99278.69;;;8.64;77.54
11343;BME280;5726;42.160;24.746;2023-01-28T10:34:30;99289.66;;;8.62;77.26
11343;BME280;5726;42.160;24.746;2023-01-28T10:36:56;99283.16;;;8.40;78.79
11343;BME280;5726;42.160;24.746;2023-01-28T10:39:23;99292.13;;;8.54;79.45
11343;BME280;5726;42.160;24.746;2023-01-28T10:41:49;99298.47;;;8.30;79.69
11343;BME280;5726;42.160;24.746;2023-01-28T10:44:29;99282.09;;;8.41;80.38
11343;BME280;5726;42.160;24.746;2023-01-28T10:46:58;99288.00;;;8.66;79.37
11343;BME280;5726;42.160;24.746;2023-01-28T10:49:27;99275.50;;;8.90;77.28
11343;BME280;5726;42.160;24.746;2023-01-28T10:51:54;99276.66;;;8.51;77.95
11343;BME280;5726;42.160;24.746;2023-01-28T10:54:26;99287.69;;;8.73;78.53
11343;BME280;5726;42.160;24.746;2023-01-28T10:56:57;99282.81;;;8.80;78.13
11343;BME280;5726;42.160;24.746;2023-01-28T10:59:32;99272.16;;;8.75;78.69
11343;BME280;5726;42.160;24.746;2023-01-28T11:02:03;99281.91;;;8.89;78.33
11343;BME280;5726;42.160;24.746;2023-01-28T11:04:34;99278.47;;;8.84;77.54
11343;BME280;5726;42.160;24.746;2023-01-28T11:07:18;99270.59;;;8.69;78.42
11343;BME280;5726;42.160;24.746;2023-01-28T11:09:49;99281.78;;;8.76;77.60
11343;BME280;5726;42.160;24.746;2023-01-28T11:17:25;99279.22;;;8.89;77.83
11343;BME280;5726;42.160;24.746;2023-01-28T11:19:52;99275.06;;;8.78;79.21
11343;BME280;5726;42.160;24.746;2023-01-28T11:24:50;99272.38;;;9.06;79.73
11343;BME280;5726;42.160;24.746;2023-01-28T11:27:17;99272.03;;;9.36;78.83
11343;BME280;5726;42.160;24.746;2023-01-28T11:29:56;99271.66;;;9.43;77.99
11343;BME280;5726;42.160;24.746;2023-01-28T11:32:24;99267.25;;;9.33;78.32
11343;BME280;5726;42.160;24.746;2023-01-28T11:34:52;99271.44;;;8.93;79.13
11343;BME280;5726;42.160;24.746;2023-01-28T11:37:20;99279.06;;;9.04;78.99
11343;BME280;5726;42.160;24.746;2023-01-28T11:39:47;99264.56;;;9.10;78.92
11343;BME280;5726;42.160;24.746;2023-01-28T11:42:20;99278.69;;;9.15;78.97
11343;BME280;5726;42.160;24.746;2023-01-28T11:44:47;99275.78;;;8.89;79.64
11343;BME280;5726;42.160;24.746;2023-01-28T11:52:57;99280.59;;;8.58;80.87
11343;BME280;5726;42.160;24.746;2023-01-28T11:58:43;99284.78;;;8.36;81.79
11343;BME280;5726;42.160;24.746;2023-01-28T12:01:18;99274.78;;;8.18;82.83
11343;BME280;5726;42.160;24.746;2023-01-28T12:09:24;99284.78;;;7.98;82.70
11343;BME280;5726;42.160;24.746;2023-01-28T12:12:07;99290.50;;;7.77;83.90
11343;BME280;5726;42.160;24.746;2023-01-28T12:25:22;99292.22;;;7.53;85.73
11343;BME280;5726;42.160;24.746;2023-01-28T12:38:43;99312.25;;;7.51;87.17
11343;BME280;5726;42.160;24.746;2023-01-28T12:41:17;99306.66;;;7.47;88.42
11343;BME280;5726;42.160;24.746;2023-01-28T12:43:49;99315.25;;;7.29;89.74
11343;BME280;5726;42.160;24.746;2023-01-28T12:49:59;99324.03;;;7.40;90.18
11343;BME280;5726;42.160;24.746;2023-01-28T12:52:35;99328.09;;;7.22;90.46
11343;BME280;5726;42.160;24.746;2023-01-28T12:55:14;99327.56;;;7.25;89.83
11343;BME280;5726;42.160;24.746;2023-01-28T12:57:42;99337.19;;;7.16;91.17
11343;BME280;5726;42.160;24.746;2023-01-28T13:05:45;99338.16;;;7.45;91.72
11343;BME280;5726;42.160;24.746;2023-01-28T13:08:20;99343.47;;;7.45;92.18
11343;BME280;5726;42.160;24.746;2023-01-28T13:10:47;99346.75;;;7.22;92.33
11343;BME280;5726;42.160;24.746;2023-01-28T13:13:24;99346.19;;;7.30;92.23
11343;BME280;5726;42.160;24.746;2023-01-28T13:15:51;99345.13;;;7.31;93.02
11343;BME280;5726;42.160;24.746;2023-01-28T13:21:05;99352.84;;;7.28;91.70
11343;BME280;5726;42.160;24.746;2023-01-28T13:23:42;99349.38;;;7.37;91.46
11343;BME280;5726;42.160;24.746;2023-01-28T13:28:52;99367.59;;;7.11;90.78
11343;BME280;5726;42.160;24.746;2023-01-28T13:31:21;99362.22;;;7.20;90.59
11343;BME280;5726;42.160;24.746;2023-01-28T13:36:42;99368.84;;;7.38;92.50
11343;BME280;5726;42.160;24.746;2023-01-28T13:39:19;99366.50;;;7.16;91.67
11343;BME280;5726;42.160;24.746;2023-01-28T13:42:09;99371.84;;;6.97;94.88
11343;BME280;5726;42.160;24.746;2023-01-28T13:44:36;99375.53;;;7.20;94.24
11343;BME280;5726;42.160;24.746;2023-01-28T13:49:40;99385.97;;;7.02;91.20
11343;BME280;5726;42.160;24.746;2023-01-28T13:52:14;99380.13;;;6.80;92.69
11343;BME280;5726;42.160;24.746;2023-01-28T13:54:54;99382.53;;;6.87;93.27
11343;BME280;5726;42.160;24.746;2023-01-28T14:00:19;99387.03;;;6.86;93.05
11343;BME280;5726;42.160;24.746;2023-01-28T14:14:42;99402.50;;;6.69;96.08
11343;BME280;5726;42.160;24.746;2023-01-28T14:16:56;99403.31;;;6.60;96.32
11343;BME280;5726;42.160;24.746;2023-01-28T14:19:30;99398.47;;;6.37;97.96
11343;BME280;5726;42.160;24.746;2023-01-28T14:21:57;99404.88;;;6.41;98.68
11343;BME280;5726;42.160;24.746;2023-01-28T14:24:22;99396.88;;;6.36;98.84
11343;BME280;5726;42.160;24.746;2023-01-28T14:26:54;99397.41;;;6.43;99.68
11343;BME280;5726;42.160;24.746;2023-01-28T14:31:54;99410.25;;;6.66;98.43
11343;BME280;5726;42.160;24.746;2023-01-28T14:34:32;99402.53;;;6.79;97.04
11343;BME280;5726;42.160;24.746;2023-01-28T14:37:04;99412.09;;;6.80;97.81
11343;BME280;5726;42.160;24.746;2023-01-28T14:39:57;99410.75;;;6.68;98.56
11343;BME280;5726;42.160;24.746;2023-01-28T14:42:26;99413.16;;;6.69;97.43
11343;BME280;5726;42.160;24.746;2023-01-28T14:58:48;99430.47;;;6.97;94.96
11343;BME280;5726;42.160;24.746;2023-01-28T15:01:23;99437.94;;;7.14;93.47
11343;BME280;5726;42.160;24.746;2023-01-28T15:03:49;99432.09;;;6.98;94.01
11343;BME280;5726;42.160;24.746;2023-01-28T15:06:17;99445.94;;;7.05;93.07
11343;BME280;5726;42.160;24.746;2023-01-28T15:08:45;99441.66;;;6.94;92.33
11343;BME280;5726;42.160;24.746;2023-01-28T15:11:13;99440.06;;;6.88;93.36
11343;BME280;5726;42.160;24.746;2023-01-28T15:13:46;99444.88;;;7.06;92.04
11343;BME280;5726;42.160;24.746;2023-01-28T15:16:22;99449.69;;;7.13;90.32
11343;BME280;5726;42.160;24.746;2023-01-28T15:18:49;99452.63;;;7.12;90.20
11343;BME280;5726;42.160;24.746;2023-01-28T15:21:23;99458.72;;;7.17;89.56
11343;BME280;5726;42.160;24.746;2023-01-28T15:23:50;99458.47;;;7.04;90.24